sensor_id;sensor_type;location;lat;lon;timestamp;temperature;humidity
30336;DHT22;17142;47.990;7.846;2023-04-05T15:50:20;10.40;46.20
30336;DHT22;17142;47.990;7.846;2023-04-05T15:52:46;10.40;46.00
30336;DHT22;17142;47.990;7.846;2023-04-05T15:55:11;10.30;46.10
30336;DHT22;17142;47.990;7.846;2023-04-05T15:57:39;10.30;46.10
30336;DHT22;17142;47.990;7.846;2023-04-05T16:00:08;10.30;45.40
30336;DHT22;17142;47.990;7.846;2023-04-05T16:02:36;10.20;45.60
30336;DHT22;17142;47.990;7.846;2023-04-05T16:05:01;10.20;46.30
30336;DHT22;17142;47.990;7.846;2023-04-05T16:07:27;10.20;46.00
30336;DHT22;17142;47.990;7.846;2023-04-05T16:09:53;10.30;45.50
30336;DHT22;17142;47.990;7.846;2023-04-05T16:12:21;10.30;43.50
30336;DHT22;17142;47.990;7.846;2023-04-05T16:14:46;10.40;42.10
30336;DHT22;17142;47.990;7.846;2023-04-05T16:17:13;10.30;42.20
30336;DHT22;17142;47.990;7.846;2023-04-05T16:19:41;10.30;42.60
30336;DHT22;17142;47.990;7.846;2023-04-05T16:22:09;10.30;43.10
30336;DHT22;17142;47.990;7.846;2023-04-05T16:24:35;10.30;43.70
30336;DHT22;17142;47.990;7.846;2023-04-05T16:27:02;10.30;43.10
30336;DHT22;17142;47.990;7.846;2023-04-05T16:29:30;10.30;42.80
30336;DHT22;17142;47.990;7.846;2023-04-05T16:31:56;10.40;41.40
30336;DHT22;17142;47.990;7.846;2023-04-05T16:34:24;10.30;41.30
30336;DHT22;17142;47.990;7.846;2023-04-05T16:36:50;10.20;41.70
30336;DHT22;17142;47.990;7.846;2023-04-05T16:39:17;10.20;42.00
30336;DHT22;17142;47.990;7.846;2023-04-05T16:41:44;10.20;41.20
30336;DHT22;17142;47.990;7.846;2023-04-05T16:44:12;10.20;41.30
30336;DHT22;17142;47.990;7.846;2023-04-05T16:46:40;10.30;41.60
30336;DHT22;17142;47.990;7.846;2023-04-05T16:49:09;10.20;41.40
30336;DHT22;17142;47.990;7.846;2023-04-05T16:51:35;10.20;41.50
30336;DHT22;17142;47.990;7.846;2023-04-05T16:54:03;10.10;41.80
30336;DHT22;17142;47.990;7.846;2023-04-05T16:56:31;10.00;42.10
30336;DHT22;17142;47.990;7.846;2023-04-05T16:58:59;9.90;43.20
30336;DHT22;17142;47.990;7.846;2023-04-05T17:01:27;9.90;43.10
30336;DHT22;17142;47.990;7.846;2023-04-05T17:03:55;9.90;43.40
30336;DHT22;17142;47.990;7.846;2023-04-05T17:06:26;9.90;43.10
30336;DHT22;17142;47.990;7.846;2023-04-05T17:08:53;9.90;42.80
30336;DHT22;17142;47.990;7.846;2023-04-05T17:11:18;9.70;42.90
30336;DHT22;17142;47.990;7.846;2023-04-05T17:13:44;9.60;43.10
30336;DHT22;17142;47.990;7.846;2023-04-05T17:16:11;9.60;42.80
30336;DHT22;17142;47.990;7.846;2023-04-05T17:18:39;9.60;42.50
30336;DHT22;17142;47.990;7.846;2023-04-05T17:21:07;9.60;42.00
30336;DHT22;17142;47.990;7.846;2023-04-05T17:23:33;9.60;41.20
30336;DHT22;17142;47.990;7.846;2023-04-05T17:25:58;9.60;41.50
30336;DHT22;17142;47.990;7.846;2023-04-05T17:28:24;9.50;41.10
30336;DHT22;17142;47.990;7.846;2023-04-05T17:30:52;9.50;41.10
30336;DHT22;17142;47.990;7.846;2023-04-05T17:33:20;9.40;41.30
30336;DHT22;17142;47.990;7.846;2023-04-05T17:35:48;9.30;41.70
30336;DHT22;17142;47.990;7.846;2023-04-05T17:38:14;9.20;41.90
30336;DHT22;17142;47.990;7.846;2023-04-05T17:40:40;9.20;41.00
30336;DHT22;17142;47.990;7.846;2023-04-05T17:43:05;9.10;41.00
30336;DHT22;17142;47.990;7.846;2023-04-05T17:45:31;8.90;41.00
30336;DHT22;17142;47.990;7.846;2023-04-05T17:47:57;8.80;41.20
30336;DHT22;17142;47.990;7.846;2023-04-05T17:50:22;8.70;41.90
30336;DHT22;17142;47.990;7.846;2023-04-05T17:52:48;8.70;41.40
30336;DHT22;17142;47.990;7.846;2023-04-05T17:55:14;8.60;42.20
30336;DHT22;17142;47.990;7.846;2023-04-05T17:57:39;8.50;42.90
30336;DHT22;17142;47.990;7.846;2023-04-05T18:00:08;8.40;43.40
30336;DHT22;17142;47.990;7.846;2023-04-05T18:02:33;8.20;43.70
30336;DHT22;17142;47.990;7.846;2023-04-05T18:05:05;8.20;44.30
30336;DHT22;17142;47.990;7.846;2023-04-05T18:07:35;8.10;44.70
30336;DHT22;17142;47.990;7.846;2023-04-05T18:10:02;7.90;45.50
30336;DHT22;17142;47.990;7.846;2023-04-05T18:12:28;7.80;46.00
30336;DHT22;17142;47.990;7.846;2023-04-05T18:14:54;7.80;46.70
30336;DHT22;17142;47.990;7.846;2023-04-05T18:17:20;7.80;46.60
30336;DHT22;17142;47.990;7.846;2023-04-05T18:19:46;7.80;47.20
30336;DHT22;17142;47.990;7.846;2023-04-05T18:22:17;7.70;47.30
30336;DHT22;17142;47.990;7.846;2023-04-05T18:24:42;7.60;47.60
30336;DHT22;17142;47.990;7.846;2023-04-05T18:27:09;7.40;48.40
30336;DHT22;17142;47.990;7.846;2023-04-05T18:29:37;7.00;50.30
30336;DHT22;17142;47.990;7.846;2023-04-05T18:32:06;6.70;52.40
30336;DHT22;17142;47.990;7.846;2023-04-05T18:34:35;6.40;55.00
30336;DHT22;17142;47.990;7.846;2023-04-05T18:37:04;6.10;57.00
30336;DHT22;17142;47.990;7.846;2023-04-05T18:39:32;5.80;58.40
30336;DHT22;17142;47.990;7.846;2023-04-05T18:41:57;5.60;60.10
30336;DHT22;17142;47.990;7.846;2023-04-05T18:44:23;5.40;61.50
30336;DHT22;17142;47.990;7.846;2023-04-05T18:46:49;5.30;62.80
30336;DHT22;17142;47.990;7.846;2023-04-05T18:49:17;5.10;64.60
30336;DHT22;17142;47.990;7.846;2023-04-05T18:51:44;4.90;66.50
30336;DHT22;17142;47.990;7.846;2023-04-05T18:54:12;4.70;67.70
30336;DHT22;17142;47.990;7.846;2023-04-05T18:56:38;4.60;68.30
30336;DHT22;17142;47.990;7.846;2023-04-05T18:59:04;4.50;69.20
30336;DHT22;17142;47.990;7.846;2023-04-05T19:01:32;4.40;70.60
30336;DHT22;17142;47.990;7.846;2023-04-05T19:03:57;4.30;71.90
30336;DHT22;17142;47.990;7.846;2023-04-05T19:06:24;4.10;72.50
30336;DHT22;17142;47.990;7.846;2023-04-05T19:08:50;4.00;73.00
30336;DHT22;17142;47.990;7.846;2023-04-05T19:11:16;4.00;72.90
30336;DHT22;17142;47.990;7.846;2023-04-05T19:13:43;3.90;72.80
30336;DHT22;17142;47.990;7.846;2023-04-05T19:16:10;3.80;72.90
30336;DHT22;17142;47.990;7.846;2023-04-05T19:18:36;3.90;73.60
30336;DHT22;17142;47.990;7.846;2023-04-05T19:21:01;3.90;73.70
30336;DHT22;17142;47.990;7.846;2023-04-05T19:23:30;4.00;74.10
30336;DHT22;17142;47.990;7.846;2023-04-05T19:25:56;4.10;73.10
30336;DHT22;17142;47.990;7.846;2023-04-05T19:28:23;4.20;73.50
30336;DHT22;17142;47.990;7.846;2023-04-05T19:30:49;4.20;73.80
30336;DHT22;17142;47.990;7.846;2023-04-05T19:33:17;4.30;74.10
30336;DHT22;17142;47.990;7.846;2023-04-05T19:35:45;4.40;74.00
30336;DHT22;17142;47.990;7.846;2023-04-05T19:38:11;4.40;74.80
30336;DHT22;17142;47.990;7.846;2023-04-05T19:40:42;4.40;74.40
30336;DHT22;17142;47.990;7.846;2023-04-05T19:43:11;4.50;74.40
30336;DHT22;17142;47.990;7.846;2023-04-05T19:45:40;4.40;74.10
30336;DHT22;17142;47.990;7.846;2023-04-05T19:48:38;4.40;74.10
30336;DHT22;17142;47.990;7.846;2023-04-05T19:51:08;4.30;74.10
30336;DHT22;17142;47.990;7.846;2023-04-05T19:53:41;4.30;74.80
30336;DHT22;17142;47.990;7.846;2023-04-05T19:56:29;4.30;74.80
30336;DHT22;17142;47.990;7.846;2023-04-05T19:59:04;4.20;75.00
30336;DHT22;17142;47.990;7.846;2023-04-05T20:01:40;4.20;75.20
30336;DHT22;17142;47.990;7.846;2023-04-05T20:04:17;4.20;75.80
30336;DHT22;17142;47.990;7.846;2023-04-05T20:06:47;4.10;75.90
30336;DHT22;17142;47.990;7.846;2023-04-05T20:09:18;4.10;76.30
30336;DHT22;17142;47.990;7.846;2023-04-05T20:12:05;4.10;77.20
30336;DHT22;17142;47.990;7.846;2023-04-05T20:14:40;4.00;77.40
30336;DHT22;17142;47.990;7.846;2023-04-05T20:17:06;3.90;78.10
30336;DHT22;17142;47.990;7.846;2023-04-05T20:19:32;3.90;79.10
30336;DHT22;17142;47.990;7.846;2023-04-05T20:22:04;3.90;79.70
30336;DHT22;17142;47.990;7.846;2023-04-05T20:24:30;3.90;79.80
30336;DHT22;17142;47.990;7.846;2023-04-05T20:26:56;3.90;80.10
30336;DHT22;17142;47.990;7.846;2023-04-05T20:29:26;3.80;80.60
30336;DHT22;17142;47.990;7.846;2023-04-05T20:31:54;3.80;80.50
30336;DHT22;17142;47.990;7.846;2023-04-05T20:34:34;3.80;81.40
30336;DHT22;17142;47.990;7.846;2023-04-05T20:37:06;3.70;82.10
30336;DHT22;17142;47.990;7.846;2023-04-05T20:39:33;3.70;82.30
30336;DHT22;17142;47.990;7.846;2023-04-05T20:42:01;3.70;83.00
30336;DHT22;17142;47.990;7.846;2023-04-05T20:44:28;3.60;83.20
30336;DHT22;17142;47.990;7.846;2023-04-05T20:46:54;3.60;84.20
30336;DHT22;17142;47.990;7.846;2023-04-05T20:49:22;3.60;85.30
30336;DHT22;17142;47.990;7.846;2023-04-05T20:51:48;3.50;86.20
30336;DHT22;17142;47.990;7.846;2023-04-05T20:54:22;3.50;87.40
30336;DHT22;17142;47.990;7.846;2023-04-05T20:56:48;3.40;88.10
30336;DHT22;17142;47.990;7.846;2023-04-05T20:59:14;3.30;88.90
30336;DHT22;17142;47.990;7.846;2023-04-05T21:01:40;3.30;90.00
30336;DHT22;17142;47.990;7.846;2023-04-05T21:04:07;3.30;90.20
30336;DHT22;17142;47.990;7.846;2023-04-05T21:06:33;3.20;90.30
30336;DHT22;17142;47.990;7.846;2023-04-05T21:09:00;3.20;91.10
30336;DHT22;17142;47.990;7.846;2023-04-05T21:11:26;3.20;91.50
30336;DHT22;17142;47.990;7.846;2023-04-05T21:13:52;3.30;91.50
30336;DHT22;17142;47.990;7.846;2023-04-05T21:16:18;3.30;91.50
30336;DHT22;17142;47.990;7.846;2023-04-05T21:18:44;3.30;91.90
30336;DHT22;17142;47.990;7.846;2023-04-05T21:21:09;3.30;92.30
30336;DHT22;17142;47.990;7.846;2023-04-05T21:23:38;3.30;92.50
30336;DHT22;17142;47.990;7.846;2023-04-05T21:26:03;3.20;92.90
30336;DHT22;17142;47.990;7.846;2023-04-05T21:28:31;3.20;97.20
30336;DHT22;17142;47.990;7.846;2023-04-05T21:30:58;3.50;98.10
30336;DHT22;17142;47.990;7.846;2023-04-05T21:33:23;3.80;96.40
30336;DHT22;17142;47.990;7.846;2023-04-05T21:35:49;4.00;94.90
30336;DHT22;17142;47.990;7.846;2023-04-05T21:38:15;4.10;93.20
30336;DHT22;17142;47.990;7.846;2023-04-05T21:40:41;4.10;93.30
30336;DHT22;17142;47.990;7.846;2023-04-05T21:43:06;4.00;91.10
30336;DHT22;17142;47.990;7.846;2023-04-05T21:45:32;3.70;90.80
30336;DHT22;17142;47.990;7.846;2023-04-05T21:47:58;3.40;91.60
30336;DHT22;17142;47.990;7.846;2023-04-05T21:50:24;3.20;92.20
30336;DHT22;17142;47.990;7.846;2023-04-05T21:52:49;3.00;93.50
30336;DHT22;17142;47.990;7.846;2023-04-05T21:55:15;2.90;94.10
30336;DHT22;17142;47.990;7.846;2023-04-05T21:57:41;2.80;95.00
30336;DHT22;17142;47.990;7.846;2023-04-05T22:00:07;2.70;95.60
30336;DHT22;17142;47.990;7.846;2023-04-05T22:02:37;2.60;96.00
30336;DHT22;17142;47.990;7.846;2023-04-05T22:05:06;2.60;96.10
30336;DHT22;17142;47.990;7.846;2023-04-05T22:07:35;2.50;96.50
30336;DHT22;17142;47.990;7.846;2023-04-05T22:10:01;2.50;96.90
30336;DHT22;17142;47.990;7.846;2023-04-05T22:12:29;2.50;97.40
30336;DHT22;17142;47.990;7.846;2023-04-05T22:14:58;2.40;98.00
30336;DHT22;17142;47.990;7.846;2023-04-05T22:17:25;2.40;98.60
30336;DHT22;17142;47.990;7.846;2023-04-05T22:19:54;2.40;98.40
30336;DHT22;17142;47.990;7.846;2023-04-05T22:22:19;2.40;98.50
30336;DHT22;17142;47.990;7.846;2023-04-05T22:24:47;2.30;98.80
30336;DHT22;17142;47.990;7.846;2023-04-05T22:27:13;2.20;99.30
30336;DHT22;17142;47.990;7.846;2023-04-05T22:29:41;2.20;99.90
30336;DHT22;17142;47.990;7.846;2023-04-05T22:32:09;2.20;99.90
30336;DHT22;17142;47.990;7.846;2023-04-05T22:34:35;2.10;99.90
30336;DHT22;17142;47.990;7.846;2023-04-05T22:37:00;2.10;99.90
30336;DHT22;17142;47.990;7.846;2023-04-05T22:39:28;2.10;99.90
30336;DHT22;17142;47.990;7.846;2023-04-05T22:41:56;2.10;99.90
30336;DHT22;17142;47.990;7.846;2023-04-05T22:44:22;2.00;99.90
30336;DHT22;17142;47.990;7.846;2023-04-05T22:46:48;2.00;99.90
30336;DHT22;17142;47.990;7.846;2023-04-05T22:49:14;2.00;99.90
30336;DHT22;17142;47.990;7.846;2023-04-05T22:51:40;2.10;99.90
30336;DHT22;17142;47.990;7.846;2023-04-05T22:54:06;2.00;99.90
30336;DHT22;17142;47.990;7.846;2023-04-05T22:56:32;2.00;99.90
30336;DHT22;17142;47.990;7.846;2023-04-05T22:58:57;1.90;99.90
30336;DHT22;17142;47.990;7.846;2023-04-05T23:01:23;1.90;99.90
30336;DHT22;17142;47.990;7.846;2023-04-05T23:03:49;1.80;99.90
30336;DHT22;17142;47.990;7.846;2023-04-05T23:06:17;1.70;99.90
30336;DHT22;17142;47.990;7.846;2023-04-05T23:08:45;1.70;99.90
30336;DHT22;17142;47.990;7.846;2023-04-05T23:11:13;1.70;99.90
30336;DHT22;17142;47.990;7.846;2023-04-05T23:13:43;1.70;99.90
30336;DHT22;17142;47.990;7.846;2023-04-05T23:16:09;1.70;99.90
30336;DHT22;17142;47.990;7.846;2023-04-05T23:18:37;1.60;99.90
30336;DHT22;17142;47.990;7.846;2023-04-05T23:21:02;1.60;99.90
30336;DHT22;17142;47.990;7.846;2023-04-05T23:23:28;1.60;99.90
30336;DHT22;17142;47.990;7.846;2023-04-05T23:25:56;1.60;99.90
30336;DHT22;17142;47.990;7.846;2023-04-05T23:28:22;1.50;99.90
30336;DHT22;17142;47.990;7.846;2023-04-05T23:30:47;1.60;99.90
30336;DHT22;17142;47.990;7.846;2023-04-05T23:33:13;1.60;99.90
30336;DHT22;17142;47.990;7.846;2023-04-05T23:35:39;1.60;99.90
30336;DHT22;17142;47.990;7.846;2023-04-05T23:38:04;1.50;99.90
30336;DHT22;17142;47.990;7.846;2023-04-05T23:40:31;1.60;99.90
30336;DHT22;17142;47.990;7.846;2023-04-05T23:42:57;1.60;99.90
30336;DHT22;17142;47.990;7.846;2023-04-05T23:45:24;1.50;99.90
30336;DHT22;17142;47.990;7.846;2023-04-05T23:47:51;1.50;99.90
30336;DHT22;17142;47.990;7.846;2023-04-05T23:50:19;1.50;99.90
30336;DHT22;17142;47.990;7.846;2023-04-05T23:52:47;1.50;99.90
30336;DHT22;17142;47.990;7.846;2023-04-05T23:55:12;1.50;99.90
30336;DHT22;17142;47.990;7.846;2023-04-05T23:57:38;1.50;99.90
